createdAt,value
2023-01-22T00:00:06.019Z,102062.97
2023-01-22T00:02:36.172Z,102056.56
2023-01-22T00:05:04.012Z,102061.75
2023-01-22T00:07:30.737Z,102055.66
2023-01-22T00:09:57.372Z,102067.66
2023-01-22T00:12:24.146Z,102060.41
2023-01-22T00:14:50.994Z,102064.66
2023-01-22T00:17:17.720Z,102053.06
2023-01-22T00:19:44.495Z,102055.34
2023-01-22T00:22:12.222Z,102063.69
2023-01-22T00:24:41.754Z,102066.00
2023-01-22T00:27:08.348Z,102065.00
2023-01-22T00:29:35.147Z,102062.31
2023-01-22T00:32:02.360Z,102059.25
2023-01-22T00:34:29.135Z,102054.66
2023-01-22T00:36:56.202Z,102066.69
2023-01-22T00:40:35.564Z,102059.66
2023-01-22T00:43:07.787Z,102064.72
2023-01-22T00:45:34.443Z,102063.84
2023-01-22T00:48:01.306Z,102073.34
2023-01-22T00:57:40.792Z,102072.75
2023-01-22T01:00:08.435Z,102069.16
2023-01-22T01:02:55.454Z,102064.84
2023-01-22T01:05:22.983Z,102066.34
2023-01-22T01:07:49.696Z,102074.63
2023-01-22T01:10:16.886Z,102068.00
2023-01-22T01:12:46.942Z,102058.75
2023-01-22T01:15:16.410Z,102069.72
2023-01-22T01:17:43.187Z,102062.06
2023-01-22T01:20:11.503Z,102059.66
2023-01-22T01:22:57.142Z,102060.41
2023-01-22T01:25:26.865Z,102061.56
2023-01-22T01:27:55.175Z,102059.66
2023-01-22T01:30:21.903Z,102063.91
2023-01-22T01:32:49.462Z,102064.06
2023-01-22T01:35:16.224Z,102059.75
2023-01-22T01:37:42.838Z,102057.09
2023-01-22T01:40:10.036Z,102060.00
2023-01-22T01:42:39.650Z,102065.66
2023-01-22T01:45:26.683Z,102067.78
2023-01-22T01:47:57.335Z,102062.69
2023-01-22T01:50:28.660Z,102072.59
2023-01-22T01:52:56.841Z,102076.00
2023-01-22T01:55:30.494Z,102075.25
2023-01-22T01:58:01.020Z,102071.09
2023-01-22T02:00:31.428Z,102069.88
2023-01-22T02:02:58.953Z,102080.09
2023-01-22T02:05:26.193Z,102068.53
2023-01-22T02:07:52.847Z,102072.16
2023-01-22T02:10:19.913Z,102080.16
2023-01-22T02:12:46.691Z,102086.69
2023-01-22T02:15:13.866Z,102085.31
2023-01-22T02:17:40.676Z,102089.06
2023-01-22T02:20:07.628Z,102099.41
2023-01-22T02:22:36.686Z,102094.16
2023-01-22T02:25:03.479Z,102102.13
2023-01-22T02:27:30.118Z,102109.75
2023-01-22T02:29:56.881Z,102102.06
2023-01-22T02:32:23.530Z,102105.94
2023-01-22T02:34:50.179Z,102100.06
2023-01-22T02:37:16.997Z,102104.38
2023-01-22T02:39:43.668Z,102097.97
2023-01-22T02:42:10.492Z,102094.31
2023-01-22T02:44:37.147Z,102095.22
2023-01-22T02:47:04.114Z,102098.69
2023-01-22T02:49:31.783Z,102101.63
2023-01-22T02:51:58.620Z,102102.69
2023-01-22T02:54:25.477Z,102103.41
2023-01-22T02:56:52.064Z,102101.13
2023-01-22T02:59:18.737Z,102104.72
2023-01-22T03:01:45.452Z,102108.56
2023-01-22T03:04:12.133Z,102104.94
2023-01-22T03:06:43.207Z,102098.22
2023-01-22T03:09:11.036Z,102104.94
2023-01-22T03:11:38.822Z,102098.53
2023-01-22T03:14:25.302Z,102108.28
2023-01-22T03:17:11.115Z,102099.13
2023-01-22T03:19:56.459Z,102104.25
2023-01-22T03:22:23.857Z,102104.06
2023-01-22T03:24:52.071Z,102104.06
2023-01-22T03:27:20.730Z,102104.25
2023-01-22T03:29:47.352Z,102103.16
2023-01-22T03:32:14.290Z,102106.47
2023-01-22T03:34:41.031Z,102114.84
2023-01-22T03:37:08.848Z,102115.06
2023-01-22T03:39:35.525Z,102112.75
2023-01-22T03:42:02.149Z,102114.31
2023-01-22T03:44:28.841Z,102115.66
2023-01-22T03:46:55.473Z,102118.28
2023-01-22T03:49:22.180Z,102118.50
2023-01-22T03:51:48.841Z,102119.91
2023-01-22T03:54:16.608Z,102118.03
2023-01-22T03:56:43.459Z,102114.25
2023-01-22T03:59:10.760Z,102122.94
2023-01-22T04:01:37.428Z,102116.91
2023-01-22T04:04:04.321Z,102114.25
2023-01-22T04:06:31.004Z,102115.81
2023-01-22T04:08:57.702Z,102122.25
2023-01-22T04:11:24.678Z,102123.81
2023-01-22T04:13:51.328Z,102127.97
2023-01-22T04:16:18.164Z,102113.50
2023-01-22T04:18:44.876Z,102124.84
2023-01-22T04:21:11.576Z,102125.41
2023-01-22T04:23:38.201Z,102136.69
2023-01-22T04:26:04.981Z,102135.88
2023-01-22T04:28:31.635Z,102135.53
2023-01-22T04:30:58.369Z,102138.41
2023-01-22T04:33:26.182Z,102131.66
2023-01-22T04:35:54.626Z,102134.34
2023-01-22T04:38:21.360Z,102130.44
2023-01-22T04:40:48.245Z,102133.47
2023-01-22T04:43:14.913Z,102136.16
2023-01-22T04:45:41.637Z,102138.53
2023-01-22T04:48:09.261Z,102143.91
2023-01-22T04:50:36.003Z,102140.06
2023-01-22T04:53:03.091Z,102142.44
2023-01-22T04:55:30.225Z,102147.22
2023-01-22T04:57:57.893Z,102142.31
2023-01-22T05:00:25.621Z,102137.28
2023-01-22T05:02:59.426Z,102150.50
2023-01-22T05:05:27.625Z,102149.69
2023-01-22T05:07:55.074Z,102163.09
2023-01-22T05:10:22.408Z,102154.59
2023-01-22T05:12:49.318Z,102159.50
2023-01-22T05:15:23.990Z,102162.28
2023-01-22T05:17:50.915Z,102162.88
2023-01-22T05:20:17.884Z,102168.97
2023-01-22T05:22:44.699Z,102173.03
2023-01-22T05:25:11.403Z,102181.84
2023-01-22T05:27:38.013Z,102181.88
2023-01-22T05:30:05.942Z,102178.47
2023-01-22T05:32:32.823Z,102189.84
2023-01-22T05:34:59.440Z,102178.69
2023-01-22T05:37:26.027Z,102178.41
2023-01-22T05:39:52.704Z,102189.25
2023-01-22T05:42:19.433Z,102192.94
2023-01-22T05:44:46.021Z,102197.78
2023-01-22T05:47:13.635Z,102196.66
2023-01-22T05:49:40.505Z,102197.78
2023-01-22T05:52:10.690Z,102203.03
2023-01-22T05:54:38.857Z,102203.16
2023-01-22T05:57:05.807Z,102197.97
2023-01-22T05:59:32.417Z,102205.50
2023-01-22T06:01:59.083Z,102214.31
2023-01-22T06:04:25.821Z,102208.75
2023-01-22T06:06:52.544Z,102216.44
2023-01-22T06:09:19.197Z,102213.13
2023-01-22T06:11:45.924Z,102216.63
2023-01-22T06:14:12.496Z,102219.41
2023-01-22T06:16:39.166Z,102223.41
2023-01-22T06:19:06.114Z,102221.38
2023-01-22T06:21:32.713Z,102227.63
2023-01-22T06:23:59.339Z,102225.06
2023-01-22T06:26:25.973Z,102230.94
2023-01-22T06:28:53.024Z,102234.28
2023-01-22T06:31:19.790Z,102229.97
2023-01-22T06:33:46.504Z,102232.03
2023-01-22T06:36:13.251Z,102230.22
2023-01-22T06:38:42.652Z,102234.16
2023-01-22T06:41:09.802Z,102239.91
2023-01-22T06:43:37.636Z,102244.81
2023-01-22T06:46:05.032Z,102240.25
2023-01-22T06:48:31.918Z,102247.88
2023-01-22T06:50:59.988Z,102252.72
2023-01-22T06:53:27.342Z,102263.47
2023-01-22T06:55:54.500Z,102260.19
2023-01-22T06:58:21.267Z,102260.66
2023-01-22T07:00:48.085Z,102264.00
2023-01-22T07:03:15.905Z,102264.25
2023-01-22T07:05:42.697Z,102261.78
2023-01-22T07:08:13.634Z,102276.28
2023-01-22T07:10:40.333Z,102267.97
2023-01-22T07:13:09.063Z,102270.53
2023-01-22T07:15:35.959Z,102271.63
2023-01-22T07:18:02.742Z,102280.69
2023-01-22T07:20:29.521Z,102277.91
2023-01-22T07:22:59.195Z,102282.09
2023-01-22T07:25:27.399Z,102282.75
2023-01-22T07:28:01.614Z,102294.31
2023-01-22T07:30:28.674Z,102285.25
2023-01-22T07:32:59.626Z,102286.88
2023-01-22T07:35:26.953Z,102293.28
2023-01-22T07:37:55.158Z,102285.06
2023-01-22T07:40:24.256Z,102278.69
2023-01-22T07:42:51.972Z,102283.00
2023-01-22T07:45:19.437Z,102278.78
2023-01-22T07:47:58.849Z,102284.59
2023-01-22T07:50:30.805Z,102283.16
2023-01-22T07:52:57.890Z,102285.50
2023-01-22T07:55:24.698Z,102303.19
2023-01-22T07:58:17.672Z,102302.19
2023-01-22T08:00:44.557Z,102294.56
2023-01-22T08:03:11.357Z,102291.81
2023-01-22T08:05:42.429Z,102294.06
2023-01-22T08:08:14.578Z,102290.78
2023-01-22T08:10:41.863Z,102292.41
2023-01-22T08:13:08.876Z,102302.09
2023-01-22T08:15:35.737Z,102306.22
2023-01-22T08:18:02.599Z,102305.38
2023-01-22T08:20:29.310Z,102310.50
2023-01-22T08:23:00.243Z,102309.59
2023-01-22T08:25:28.055Z,102316.19
2023-01-22T08:27:55.061Z,102304.31
2023-01-22T08:30:26.082Z,102313.47
2023-01-22T08:32:53.599Z,102314.28
2023-01-22T08:35:21.738Z,102317.72
2023-01-22T08:37:48.601Z,102315.13
2023-01-22T08:40:15.826Z,102326.00
2023-01-22T08:42:42.800Z,102326.78
2023-01-22T08:45:10.044Z,102329.69
2023-01-22T08:47:36.720Z,102340.25
2023-01-22T08:50:04.072Z,102342.50
2023-01-22T08:52:30.961Z,102343.94
2023-01-22T08:54:57.775Z,102358.31
2023-01-22T08:57:24.468Z,102355.81
2023-01-22T09:00:00.744Z,102358.22
2023-01-22T09:02:28.281Z,102355.03
2023-01-22T09:04:55.110Z,102365.38
2023-01-22T09:07:21.824Z,102371.63
2023-01-22T09:09:48.535Z,102369.41
2023-01-22T09:12:15.143Z,102375.63
2023-01-22T09:14:41.862Z,102375.69
2023-01-22T09:17:08.855Z,102376.81
2023-01-22T09:19:35.574Z,102378.44
2023-01-22T09:22:06.616Z,102380.38
2023-01-22T09:24:33.800Z,102378.75
2023-01-22T09:27:00.521Z,102381.56
2023-01-22T09:29:27.302Z,102379.56
2023-01-22T09:31:54.066Z,102380.84
2023-01-22T09:34:20.749Z,102379.72
2023-01-22T09:36:47.451Z,102383.69
2023-01-22T09:39:14.263Z,102375.75
2023-01-22T09:41:43.475Z,102380.59
2023-01-22T09:44:34.487Z,102388.16
2023-01-22T09:47:12.896Z,102383.44
2023-01-22T09:50:04.610Z,102386.09
2023-01-22T09:52:34.096Z,102378.88
2023-01-22T09:55:01.034Z,102386.56
2023-01-22T09:57:32.218Z,102386.69
2023-01-22T09:59:59.847Z,102387.56
2023-01-22T10:02:31.306Z,102385.63
2023-01-22T10:05:01.846Z,102384.00
2023-01-22T10:07:36.855Z,102390.97
2023-01-22T10:10:17.496Z,102389.59
2023-01-22T10:12:44.783Z,102395.22
2023-01-22T10:15:15.490Z,102387.13
2023-01-22T10:17:42.502Z,102393.72
2023-01-22T10:20:11.139Z,102395.22
2023-01-22T10:22:37.948Z,102398.31
2023-01-22T10:25:05.163Z,102396.50
2023-01-22T10:27:35.487Z,102403.63
2023-01-22T10:30:09.474Z,102401.72
2023-01-22T10:32:36.186Z,102402.97
2023-01-22T10:35:05.771Z,102402.97
2023-01-22T10:37:44.532Z,102399.97
2023-01-22T10:40:34.379Z,102405.75
2023-01-22T10:43:15.654Z,102405.47
2023-01-22T10:45:56.937Z,102403.41
2023-01-22T10:48:24.479Z,102403.91
2023-01-22T10:51:14.420Z,102396.91
2023-01-22T10:53:47.636Z,102404.38
2023-01-22T10:56:25.444Z,102399.25
2023-01-22T10:58:52.324Z,102400.63
2023-01-22T11:01:30.091Z,102407.41
2023-01-22T11:03:56.918Z,102407.63
2023-01-22T11:06:32.809Z,102411.31
2023-01-22T11:09:16.727Z,102400.50
2023-01-22T11:11:49.859Z,102403.22
2023-01-22T11:14:29.968Z,102403.59
2023-01-22T11:16:59.283Z,102397.31
2023-01-22T11:19:36.877Z,102399.19
2023-01-22T11:22:11.898Z,102397.84
2023-01-22T11:24:47.164Z,102395.25
2023-01-22T11:27:20.445Z,102389.88
2023-01-22T11:30:21.132Z,102393.34
2023-01-22T11:33:04.106Z,102395.06
2023-01-22T11:35:41.764Z,102388.16
2023-01-22T11:38:44.056Z,102391.84
2023-01-22T11:41:47.587Z,102393.16
2023-01-22T11:44:42.576Z,102394.66
2023-01-22T11:47:25.018Z,102388.38
2023-01-22T11:50:00.902Z,102390.41
2023-01-22T11:52:36.518Z,102391.72
2023-01-22T11:55:24.576Z,102396.66
2023-01-22T11:58:01.740Z,102398.03
2023-01-22T12:00:42.524Z,102397.97
2023-01-22T12:03:12.121Z,102397.19
2023-01-22T12:05:59.590Z,102389.19
2023-01-22T12:08:35.306Z,102389.66
2023-01-22T12:11:23.880Z,102383.34
2023-01-22T12:14:11.899Z,102388.63
2023-01-22T12:17:17.061Z,102396.78
2023-01-22T12:20:09.951Z,102385.34
2023-01-22T12:22:38.410Z,102387.59
2023-01-22T12:25:21.269Z,102388.84
2023-01-22T12:27:52.449Z,102384.91
2023-01-22T12:30:37.016Z,102392.41
2023-01-22T12:33:05.439Z,102388.31
2023-01-22T12:35:32.722Z,102391.84
2023-01-22T12:38:12.901Z,102390.69
2023-01-22T12:40:52.591Z,102384.31
2023-01-22T12:43:26.927Z,102384.41
2023-01-22T12:45:54.115Z,102387.06
2023-01-22T12:48:26.703Z,102391.88
2023-01-22T12:50:56.222Z,102389.16
2023-01-22T12:53:29.983Z,102388.69
2023-01-22T12:56:09.706Z,102393.47
2023-01-22T12:58:41.005Z,102387.13
2023-01-22T13:01:23.318Z,102394.53
2023-01-22T13:04:07.131Z,102394.19
2023-01-22T13:06:41.573Z,102398.50
2023-01-22T13:09:26.267Z,102395.22
2023-01-22T13:11:52.956Z,102399.59
2023-01-22T13:14:21.681Z,102397.47
2023-01-22T13:16:59.550Z,102405.84
2023-01-22T13:19:29.094Z,102403.72
2023-01-22T13:21:59.790Z,102400.91
2023-01-22T13:24:26.379Z,102407.53
2023-01-22T13:27:01.138Z,102411.88
2023-01-22T13:29:34.021Z,102403.75
2023-01-22T13:32:06.355Z,102407.84
2023-01-22T13:34:33.005Z,102409.25
2023-01-22T13:36:59.843Z,102409.44
2023-01-22T13:39:32.391Z,102403.34
2023-01-22T13:42:01.493Z,102406.19
2023-01-22T13:44:34.381Z,102403.00
2023-01-22T13:47:01.660Z,102405.66
2023-01-22T13:49:42.801Z,102409.50
2023-01-22T13:52:14.567Z,102402.66
2023-01-22T13:54:43.711Z,102405.06
2023-01-22T13:57:16.102Z,102406.59
2023-01-22T13:59:53.135Z,102411.22
2023-01-22T14:02:21.965Z,102408.44
2023-01-22T14:04:49.174Z,102417.72
2023-01-22T14:07:27.542Z,102422.84
2023-01-22T14:09:55.261Z,102427.72
2023-01-22T14:12:26.907Z,102420.09
2023-01-22T14:14:54.206Z,102426.44
2023-01-22T14:17:24.739Z,102423.84
2023-01-22T14:19:51.778Z,102422.47
2023-01-22T14:22:18.688Z,102417.72
2023-01-22T14:24:45.375Z,102419.91
2023-01-22T14:27:11.993Z,102414.31
2023-01-22T14:29:38.777Z,102417.41
2023-01-22T14:32:05.462Z,102422.53
2023-01-22T14:34:32.099Z,102408.97
2023-01-22T14:36:58.765Z,102424.63
2023-01-22T14:39:25.562Z,102423.41
2023-01-22T14:41:52.221Z,102421.91
2023-01-22T14:44:19.055Z,102420.09
2023-01-22T14:46:45.883Z,102425.28
2023-01-22T14:49:12.691Z,102430.28
2023-01-22T14:51:39.426Z,102424.56
2023-01-22T14:54:06.077Z,102432.31
2023-01-22T14:56:32.709Z,102427.91
2023-01-22T14:58:59.397Z,102439.44
2023-01-22T15:01:28.232Z,102434.16
2023-01-22T15:03:54.850Z,102435.19
2023-01-22T15:06:21.482Z,102441.31
2023-01-22T15:08:48.120Z,102445.19
2023-01-22T15:11:14.790Z,102451.09
2023-01-22T15:13:44.287Z,102446.34
2023-01-22T15:16:11.407Z,102455.84
2023-01-22T15:18:38.636Z,102451.63
2023-01-22T15:21:06.007Z,102456.94
2023-01-22T15:23:33.947Z,102459.41
2023-01-22T15:26:03.543Z,102454.97
2023-01-22T15:28:30.759Z,102466.84
2023-01-22T15:31:01.464Z,102457.66
2023-01-22T15:33:28.225Z,102467.88
2023-01-22T15:35:54.955Z,102466.84
2023-01-22T15:38:21.753Z,102471.31
2023-01-22T15:40:51.666Z,102476.38
2023-01-22T15:43:18.277Z,102480.69
2023-01-22T15:45:44.906Z,102482.16
2023-01-22T15:48:13.923Z,102485.50
2023-01-22T15:50:41.630Z,102481.72
2023-01-22T15:53:08.334Z,102482.09
2023-01-22T15:55:35.555Z,102487.59
2023-01-22T15:58:02.319Z,102487.28
2023-01-22T16:00:29.348Z,102479.72
2023-01-22T16:02:56.078Z,102484.78
2023-01-22T16:05:25.928Z,102485.97
2023-01-22T16:07:52.765Z,102493.03
2023-01-22T16:10:20.172Z,102485.25
2023-01-22T16:12:46.970Z,102496.31
2023-01-22T16:15:13.552Z,102496.44
2023-01-22T16:17:40.151Z,102494.59
2023-01-22T16:20:07.789Z,102485.47
2023-01-22T16:22:34.457Z,102494.81
2023-01-22T16:25:01.123Z,102494.81
2023-01-22T16:27:27.882Z,102500.16
2023-01-22T16:29:54.845Z,102505.06
2023-01-22T16:32:21.535Z,102504.50
2023-01-22T16:34:48.202Z,102505.50
2023-01-22T16:37:14.905Z,102507.09
2023-01-22T16:39:41.598Z,102515.34
2023-01-22T16:42:08.186Z,102512.00
2023-01-22T16:44:35.065Z,102515.72
2023-01-22T16:47:01.767Z,102515.09
2023-01-22T16:49:30.465Z,102516.31
2023-01-22T16:52:00.272Z,102511.47
2023-01-22T16:54:34.899Z,102514.81
2023-01-22T16:57:06.131Z,102528.22
2023-01-22T16:59:36.881Z,102519.16
2023-01-22T17:02:05.241Z,102524.03
2023-01-22T17:04:31.893Z,102531.53
2023-01-22T17:06:59.549Z,102534.66
2023-01-22T17:09:28.704Z,102532.88
2023-01-22T17:11:58.253Z,102536.91
2023-01-22T17:14:27.081Z,102531.84
2023-01-22T17:16:53.855Z,102538.97
2023-01-22T17:19:20.499Z,102538.31
2023-01-22T17:21:49.712Z,102546.44
2023-01-22T17:24:16.343Z,102546.19
2023-01-22T17:26:42.962Z,102543.44
2023-01-22T17:29:10.335Z,102543.97
2023-01-22T17:31:37.991Z,102546.56
2023-01-22T17:34:08.752Z,102541.56
2023-01-22T17:36:35.690Z,102554.50
2023-01-22T17:39:04.678Z,102551.81
2023-01-22T17:41:31.575Z,102549.53
2023-01-22T17:43:58.869Z,102543.88
2023-01-22T17:46:31.961Z,102548.22
2023-01-22T17:49:01.098Z,102556.84
2023-01-22T17:51:28.822Z,102558.22
2023-01-22T17:53:56.908Z,102565.66
2023-01-22T17:56:26.397Z,102567.63
2023-01-22T17:58:57.473Z,102567.44
2023-01-22T18:01:27.923Z,102574.38
2023-01-22T18:03:57.533Z,102573.63
2023-01-22T18:06:24.829Z,102579.06
2023-01-22T18:08:51.563Z,102581.16
2023-01-22T18:11:20.466Z,102589.06
2023-01-22T18:13:47.724Z,102588.91
2023-01-22T18:16:16.494Z,102598.16
2023-01-22T18:18:43.892Z,102598.66
2023-01-22T18:21:16.625Z,102594.72
2023-01-22T18:23:44.207Z,102601.66
2023-01-22T18:26:11.015Z,102598.25
2023-01-22T18:28:41.596Z,102599.44
2023-01-22T18:31:11.598Z,102599.47
2023-01-22T18:33:39.361Z,102605.22
2023-01-22T18:36:12.275Z,102610.78
2023-01-22T18:38:39.861Z,102612.69
2023-01-22T18:41:10.389Z,102621.56
2023-01-22T18:43:38.286Z,102619.81
2023-01-22T18:46:12.387Z,102620.38
2023-01-22T18:48:40.229Z,102625.03
2023-01-22T18:51:09.184Z,102627.28
2023-01-22T18:53:36.408Z,102628.09
2023-01-22T18:56:05.100Z,102624.84
2023-01-22T18:58:33.883Z,102633.63
2023-01-22T19:01:12.395Z,102623.53
2023-01-22T19:03:41.215Z,102629.63
2023-01-22T19:06:13.948Z,102633.78
2023-01-22T19:08:46.150Z,102640.44
2023-01-22T19:11:14.054Z,102642.81
2023-01-22T19:13:42.013Z,102646.72
2023-01-22T19:16:10.990Z,102638.03
2023-01-22T19:18:42.301Z,102642.97
2023-01-22T19:21:12.472Z,102645.16
2023-01-22T19:23:39.156Z,102646.84
2023-01-22T19:26:15.666Z,102655.75
2023-01-22T19:28:42.755Z,102645.41
2023-01-22T19:31:17.963Z,102652.25
2023-01-22T19:33:45.457Z,102646.47
2023-01-22T19:36:12.430Z,102652.34
2023-01-22T19:38:40.500Z,102655.50
2023-01-22T19:41:08.785Z,102652.41
2023-01-22T19:43:35.909Z,102649.38
2023-01-22T19:46:09.482Z,102661.91
2023-01-22T19:48:36.714Z,102658.75
2023-01-22T19:51:08.051Z,102658.16
2023-01-22T19:53:35.101Z,102666.16
2023-01-22T19:56:02.187Z,102660.84
2023-01-22T19:58:28.909Z,102650.94
2023-01-22T20:00:58.124Z,102658.34
2023-01-22T20:03:26.408Z,102663.38
2023-01-22T20:05:53.178Z,102659.00
2023-01-22T20:08:22.104Z,102662.97
2023-01-22T20:10:58.205Z,102657.22
2023-01-22T20:13:24.818Z,102661.28
2023-01-22T20:15:52.829Z,102666.16
2023-01-22T20:18:19.984Z,102664.38
2023-01-22T20:20:57.521Z,102670.69
2023-01-22T20:23:26.173Z,102669.38
2023-01-22T20:25:53.028Z,102668.34
2023-01-22T20:28:19.956Z,102675.41
2023-01-22T20:30:57.310Z,102670.69
2023-01-22T20:33:28.143Z,102673.16
2023-01-22T20:35:56.436Z,102676.63
2023-01-22T20:38:23.397Z,102672.41
2023-01-22T20:40:50.389Z,102675.00
2023-01-22T20:43:17.842Z,102671.66
2023-01-22T20:45:44.679Z,102671.09
2023-01-22T20:48:11.348Z,102673.69
2023-01-22T20:50:42.034Z,102684.28
2023-01-22T20:53:08.722Z,102690.59
2023-01-22T20:55:35.530Z,102686.97
2023-01-22T20:58:07.367Z,102685.47
2023-01-22T21:00:37.108Z,102690.47
2023-01-22T21:03:03.994Z,102689.56
2023-01-22T21:05:30.864Z,102689.09
2023-01-22T21:07:57.515Z,102697.91
2023-01-22T21:10:24.326Z,102699.78
2023-01-22T21:12:52.925Z,102702.50
2023-01-22T21:15:19.575Z,102712.28
2023-01-22T21:17:46.640Z,102711.06
2023-01-22T21:20:13.425Z,102709.00
2023-01-22T21:22:41.922Z,102709.38
2023-01-22T21:25:09.033Z,102709.22
2023-01-22T21:27:36.756Z,102709.28
2023-01-22T21:30:09.130Z,102705.47
2023-01-22T21:33:01.150Z,102703.13
2023-01-22T21:35:35.136Z,102705.16
2023-01-22T21:38:01.936Z,102709.88
2023-01-22T21:40:28.686Z,102697.94
2023-01-22T21:43:20.020Z,102705.50
2023-01-22T21:46:27.908Z,102701.00
2023-01-22T21:48:58.308Z,102712.47
2023-01-22T21:51:29.335Z,102715.22
2023-01-22T21:53:58.389Z,102706.63
2023-01-22T21:56:26.484Z,102705.47
2023-01-22T21:58:53.191Z,102705.72
2023-01-22T22:01:21.612Z,102701.50
2023-01-22T22:03:54.453Z,102703.94
2023-01-22T22:06:24.420Z,102706.88
2023-01-22T22:08:53.929Z,102707.50
2023-01-22T22:11:20.552Z,102714.75
2023-01-22T22:13:49.847Z,102717.16
2023-01-22T22:16:16.570Z,102717.44
2023-01-22T22:18:43.220Z,102722.63
2023-01-22T22:21:10.455Z,102716.88
2023-01-22T22:23:37.390Z,102717.84
2023-01-22T22:26:05.175Z,102720.84
2023-01-22T22:28:32.886Z,102736.78
2023-01-22T22:31:11.868Z,102730.34
2023-01-22T22:33:46.802Z,102732.16
2023-01-22T22:36:14.730Z,102732.41
2023-01-22T22:38:41.648Z,102738.31
2023-01-22T22:41:12.499Z,102736.44
2023-01-22T22:43:44.111Z,102743.84
2023-01-22T22:46:20.214Z,102747.88
2023-01-22T22:48:47.447Z,102748.47
2023-01-22T22:51:23.175Z,102748.38
2023-01-22T22:53:52.499Z,102759.88
2023-01-22T22:56:19.155Z,102764.41
2023-01-22T22:58:46.417Z,102756.13
2023-01-22T23:01:18.055Z,102766.59
2023-01-22T23:03:45.094Z,102765.63
2023-01-22T23:06:14.224Z,102765.63
2023-01-22T23:08:42.791Z,102762.81
2023-01-22T23:11:11.285Z,102764.16
2023-01-22T23:13:38.655Z,102765.63
2023-01-22T23:16:11.552Z,102773.50
2023-01-22T23:18:38.332Z,102771.41
2023-01-22T23:21:06.418Z,102774.66
2023-01-22T23:23:33.478Z,102772.19
2023-01-22T23:26:00.660Z,102784.13
2023-01-22T23:28:29.619Z,102793.72
2023-01-22T23:30:56.378Z,102789.28
2023-01-22T23:33:23.063Z,102784.66
2023-01-22T23:35:51.297Z,102795.84
2023-01-22T23:38:18.021Z,102795.94
2023-01-22T23:40:44.650Z,102792.09
2023-01-22T23:43:11.397Z,102799.94
2023-01-22T23:45:38.943Z,102794.09
2023-01-22T23:48:05.735Z,102804.16
2023-01-22T23:50:32.390Z,102798.59
2023-01-22T23:53:02.714Z,102807.41
2023-01-22T23:55:31.426Z,102804.03
2023-01-22T23:57:58.189Z,102810.44
